Time;durP1;ratioP1;P1;durP2;ratioP2;P2;SDS_P1;SDS_P2;PMS_P1;PMS_P2;Temp;Humidity;BMP_temperature;BMP_pressure;BME280_temperature;BME280_humidity;BME280_pressure;Samples;Min_cycle;Max_cycle;Signal;HPM_P1;HPM_P2
2022/05/02 00:02:19;;;;;;;48.63;22.63;;;9.60;34.80;;;;;;5084531;28;20483;-63
2022/05/02 00:04:46;;;;;;;50.13;22.37;;;9.50;35.20;;;;;;5075698;28;20457;-61
2022/05/02 00:07:13;;;;;;;49.90;21.97;;;9.50;34.90;;;;;;5074318;28;20837;-62
2022/05/02 00:09:40;;;;;;;50.10;22.17;;;9.50;35.00;;;;;;5077993;28;20886;-62
2022/05/02 00:12:07;;;;;;;48.90;22.17;;;9.40;34.80;;;;;;5074481;28;20465;-62
2022/05/02 00:14:34;;;;;;;52.50;23.00;;;9.30;35.10;;;;;;5074923;28;20464;-62
2022/05/02 00:17:02;;;;;;;52.00;23.00;;;9.30;35.30;;;;;;5077907;28;21130;-62
2022/05/02 00:19:29;;;;;;;54.47;23.83;;;9.30;35.40;;;;;;5071460;28;20483;-64
2022/05/02 00:21:56;;;;;;;51.37;23.30;;;9.30;35.30;;;;;;5073012;28;20452;-63
2022/05/02 00:24:22;;;;;;;52.63;22.33;;;9.30;35.20;;;;;;5075459;28;20468;-63
2022/05/02 00:26:49;;;;;;;52.17;23.20;;;9.20;35.60;;;;;;5080377;28;20468;-63
2022/05/02 00:29:16;;;;;;;55.17;22.70;;;9.10;35.80;;;;;;5070386;28;20500;-62
2022/05/02 00:31:45;;;;;;;49.60;23.03;;;9.10;35.90;;;;;;5073295;28;20483;-61
2022/05/02 00:34:14;;;;;;;52.30;22.90;;;9.00;36.10;;;;;;5077968;28;20459;-63
2022/05/02 00:36:41;;;;;;;52.23;24.60;;;9.00;36.20;;;;;;5080538;28;20471;-63
2022/05/02 00:39:08;;;;;;;57.13;25.60;;;8.90;36.20;;;;;;5072790;28;20473;-62
2022/05/02 00:41:34;;;;;;;54.93;23.07;;;9.00;36.40;;;;;;5078011;28;20464;-62
2022/05/02 00:44:01;;;;;;;53.67;23.27;;;8.90;36.10;;;;;;5069614;28;20484;-63
2022/05/02 00:46:28;;;;;;;51.93;22.43;;;8.90;36.20;;;;;;5085317;28;20479;-63
2022/05/02 00:48:55;;;;;;;55.57;23.77;;;8.90;36.10;;;;;;5069128;28;20499;-62
2022/05/02 00:51:23;;;;;;;54.50;24.03;;;8.90;35.90;;;;;;5069335;28;20448;-62
2022/05/02 00:53:51;;;;;;;51.63;24.20;;;9.00;36.20;;;;;;5079634;28;20460;-64
2022/05/02 00:56:20;;;;;;;50.17;22.00;;;8.90;35.90;;;;;;5080474;28;20452;-62
2022/05/02 00:58:49;;;;;;;51.57;21.90;;;8.90;36.00;;;;;;5070154;28;20502;-62
2022/05/02 01:01:15;;;;;;;52.00;22.40;;;8.80;35.60;;;;;;5083964;28;20472;-63
2022/05/02 01:03:42;;;;;;;51.40;22.10;;;8.80;36.00;;;;;;5078261;28;20464;-61
2022/05/02 01:08:56;;;;;;;51.77;23.10;;;8.70;36.00;;;;;;5070899;28;20890;-62
2022/05/02 01:11:22;;;;;;;57.50;22.70;;;8.70;35.80;;;;;;5072083;28;20456;-62
2022/05/02 01:13:50;;;;;;;55.10;23.40;;;8.60;36.00;;;;;;5075841;28;20456;-64
2022/05/02 01:16:19;;;;;;;54.90;24.17;;;8.60;36.20;;;;;;5077356;28;20495;-63
2022/05/02 01:18:47;;;;;;;51.60;23.70;;;8.50;36.40;;;;;;5075874;28;20480;-62
2022/05/02 01:21:17;;;;;;;54.67;25.30;;;8.50;37.00;;;;;;5073688;28;21080;-62
2022/05/02 01:23:45;;;;;;;54.60;24.57;;;8.50;37.90;;;;;;5074390;28;20464;-62
2022/05/02 01:26:12;;;;;;;58.73;26.40;;;8.50;37.90;;;;;;5076924;28;20457;-60
2022/05/02 01:28:43;;;;;;;56.30;26.50;;;8.50;37.90;;;;;;5077610;28;21046;-63
2022/05/02 01:31:10;;;;;;;52.37;25.30;;;8.50;37.70;;;;;;5075667;28;20472;-62
2022/05/02 01:33:37;;;;;;;55.90;25.30;;;8.50;37.50;;;;;;5086597;28;21181;-63
2022/05/02 01:36:04;;;;;;;55.20;22.80;;;8.50;37.30;;;;;;5076996;28;20465;-61
2022/05/02 01:38:33;;;;;;;58.70;24.47;;;8.50;37.20;;;;;;5080109;28;20491;-62
2022/05/02 01:41:00;;;;;;;55.10;26.10;;;8.50;36.90;;;;;;5076379;28;20461;-62
2022/05/02 01:43:27;;;;;;;59.23;27.40;;;8.50;36.80;;;;;;5086042;28;21014;-63
2022/05/02 01:45:54;;;;;;;55.33;25.80;;;8.50;36.80;;;;;;5080987;28;20453;-62
2022/05/02 01:48:20;;;;;;;56.27;25.47;;;8.50;36.90;;;;;;5082063;28;20916;-62
2022/05/02 01:50:47;;;;;;;57.90;27.10;;;8.50;37.40;;;;;;5073648;28;20480;-65
2022/05/02 01:53:14;;;;;;;56.20;24.00;;;8.50;37.10;;;;;;5089765;28;20973;-62
2022/05/02 01:55:42;;;;;;;54.60;24.67;;;8.50;37.20;;;;;;5075825;28;20457;-61
2022/05/02 01:58:09;;;;;;;59.70;28.17;;;8.50;36.90;;;;;;5082520;28;20471;-63
2022/05/02 02:00:36;;;;;;;54.93;26.13;;;8.50;36.90;;;;;;5078079;28;20460;-63
2022/05/02 02:03:03;;;;;;;52.53;25.23;;;8.50;36.90;;;;;;5088826;28;20460;-60
2022/05/02 02:08:14;;;;;;;60.97;29.07;;;8.40;36.70;;;;;;5082261;28;20456;-65
2022/05/02 02:10:43;;;;;;;58.93;26.60;;;8.50;36.60;;;;;;5087402;28;20472;-62
2022/05/02 02:13:10;;;;;;;59.17;25.90;;;8.40;36.60;;;;;;5075210;28;20457;-61
2022/05/02 02:15:37;;;;;;;58.83;24.90;;;8.40;36.70;;;;;;5083068;28;20464;-63
2022/05/02 02:18:04;;;;;;;55.17;23.97;;;8.40;36.80;;;;;;5083759;28;20467;-62
2022/05/02 02:20:31;;;;;;;55.30;24.30;;;8.40;36.80;;;;;;5081940;28;20481;-61
2022/05/02 02:22:58;;;;;;;56.10;24.87;;;8.40;36.70;;;;;;5076769;28;20465;-63
2022/05/02 02:25:25;;;;;;;55.33;23.90;;;8.40;36.60;;;;;;5082691;28;20503;-64
2022/05/02 02:27:53;;;;;;;53.23;23.70;;;8.30;36.60;;;;;;5082108;28;20457;-63
2022/05/02 02:30:21;;;;;;;55.20;24.33;;;8.30;36.50;;;;;;5077419;28;20987;-62
2022/05/02 02:32:47;;;;;;;55.40;23.63;;;8.20;36.50;;;;;;5073895;28;20461;-62
2022/05/02 02:35:14;;;;;;;57.60;24.20;;;8.20;36.40;;;;;;5076207;28;20584;-64
2022/05/02 02:37:41;;;;;;;57.40;25.97;;;8.20;36.50;;;;;;5072225;28;20468;-62
2022/05/02 02:40:09;;;;;;;58.33;25.37;;;8.20;36.50;;;;;;5075553;28;20477;-63
2022/05/02 02:42:38;;;;;;;58.23;24.70;;;8.20;36.80;;;;;;5076616;28;20506;-62
2022/05/02 02:45:07;;;;;;;57.20;24.23;;;8.20;37.10;;;;;;5083907;28;20461;-61
2022/05/02 02:47:34;;;;;;;55.90;24.77;;;8.20;36.90;;;;;;5075575;28;20457;-61
2022/05/02 02:50:01;;;;;;;55.93;24.50;;;8.20;36.70;;;;;;5076167;28;20476;-61
2022/05/02 02:52:28;;;;;;;55.20;23.90;;;8.20;36.60;;;;;;5077504;28;20456;-63
2022/05/02 02:54:55;;;;;;;56.83;25.40;;;8.30;36.70;;;;;;5072654;28;20461;-63
2022/05/02 02:57:21;;;;;;;53.73;23.13;;;8.20;36.60;;;;;;5070639;28;20457;-64
2022/05/02 02:59:48;;;;;;;54.83;23.13;;;8.20;36.80;;;;;;5076217;28;20507;-62
2022/05/02 03:02:16;;;;;;;56.50;23.40;;;8.20;36.70;;;;;;5072725;28;20483;-64
2022/05/02 03:07:29;;;;;;;52.70;19.83;;;8.00;36.10;;;;;;5080842;28;20455;-63
2022/05/02 03:09:57;;;;;;;51.80;21.07;;;7.90;35.80;;;;;;5085011;28;20483;-63
2022/05/02 03:12:25;;;;;;;52.27;21.10;;;7.80;35.80;;;;;;5078613;28;20469;-62
2022/05/02 03:14:51;;;;;;;53.93;19.93;;;7.80;36.10;;;;;;5079354;28;20459;-61
2022/05/02 03:17:20;;;;;;;53.83;24.00;;;7.70;36.50;;;;;;5074893;28;20457;-62
2022/05/02 03:19:46;;;;;;;56.27;23.20;;;7.60;36.80;;;;;;5074225;28;20468;-62
2022/05/02 03:22:13;;;;;;;58.03;25.57;;;7.60;36.80;;;;;;5076389;28;20452;-64
2022/05/02 03:24:40;;;;;;;55.33;25.10;;;7.60;36.80;;;;;;5083011;28;21168;-63
2022/05/02 03:27:07;;;;;;;57.27;24.93;;;7.60;37.20;;;;;;5075011;28;20878;-63
2022/05/02 03:29:36;;;;;;;57.07;24.67;;;7.60;37.20;;;;;;5077764;28;20484;-64
2022/05/02 03:32:03;;;;;;;59.90;26.87;;;7.60;37.30;;;;;;5076035;28;20484;-62
2022/05/02 03:34:31;;;;;;;57.30;22.87;;;7.60;37.40;;;;;;5081924;28;20457;-62
2022/05/02 03:36:58;;;;;;;59.90;25.73;;;7.50;38.10;;;;;;5073431;28;20472;-62
2022/05/02 03:39:25;;;;;;;57.60;25.03;;;7.50;37.90;;;;;;5079093;28;20567;-63
2022/05/02 03:41:52;;;;;;;62.03;26.47;;;7.50;38.30;;;;;;5080997;28;20456;-63
2022/05/02 03:44:19;;;;;;;60.00;26.17;;;7.50;38.30;;;;;;5075095;28;20989;-61
2022/05/02 03:46:46;;;;;;;60.33;26.73;;;7.50;38.20;;;;;;5078940;28;20491;-61
2022/05/02 03:49:13;;;;;;;57.83;25.70;;;7.50;38.30;;;;;;5082770;28;20472;-63
2022/05/02 03:51:41;;;;;;;60.50;28.27;;;7.50;38.30;;;;;;5075814;28;20476;-62
2022/05/02 03:54:08;;;;;;;60.90;26.90;;;7.60;38.30;;;;;;5074119;28;20469;-61
2022/05/02 03:56:34;;;;;;;57.97;26.27;;;7.50;38.50;;;;;;5069769;28;20467;-62
2022/05/02 03:59:01;;;;;;;60.83;26.00;;;7.50;38.80;;;;;;5081067;28;20480;-62
2022/05/02 04:01:28;;;;;;;57.83;26.23;;;7.50;38.90;;;;;;5074033;28;20510;-62
2022/05/02 04:03:55;;;;;;;61.97;27.93;;;7.40;39.20;;;;;;5093676;28;20466;-62
2022/05/02 04:06:22;;;;;;;60.53;26.37;;;7.40;39.20;;;;;;5085266;28;20643;-61
2022/05/02 04:08:50;;;;;;;58.60;27.00;;;7.40;39.40;;;;;;5074639;28;20480;-66
2022/05/02 04:11:17;;;;;;;63.37;27.90;;;7.40;39.60;;;;;;5076316;28;20513;-61
2022/05/02 04:13:43;;;;;;;56.03;24.67;;;7.30;39.70;;;;;;5067756;28;20963;-61
2022/05/02 04:16:10;;;;;;;59.23;26.47;;;7.30;39.80;;;;;;5072285;28;20468;-60
2022/05/02 04:18:37;;;;;;;58.07;24.40;;;7.30;39.70;;;;;;5086059;28;20476;-61
2022/05/02 04:21:03;;;;;;;56.50;24.53;;;7.30;39.10;;;;;;5074557;28;20457;-60
2022/05/02 04:23:30;;;;;;;56.73;24.97;;;7.30;38.80;;;;;;5070605;28;20962;-61
2022/05/02 04:25:58;;;;;;;60.10;27.30;;;7.40;38.60;;;;;;5075381;28;20551;-61
2022/05/02 04:28:25;;;;;;;60.97;25.40;;;7.40;38.60;;;;;;5076976;28;20469;-60
2022/05/02 04:30:52;;;;;;;57.83;27.27;;;7.40;38.70;;;;;;5072993;28;20476;-62
2022/05/02 04:33:19;;;;;;;62.10;27.10;;;7.50;38.90;;;;;;5079844;28;20458;-66
2022/05/02 04:35:46;;;;;;;66.30;28.33;;;7.60;38.80;;;;;;5075884;28;20468;-64
2022/05/02 04:38:12;;;;;;;58.50;26.73;;;7.60;38.70;;;;;;5068650;28;20491;-63
2022/05/02 04:40:39;;;;;;;57.27;25.57;;;7.70;38.80;;;;;;5074603;28;20981;-62
2022/05/02 04:43:07;;;;;;;55.90;24.53;;;7.70;38.80;;;;;;5070781;28;20518;-62
2022/05/02 04:45:34;;;;;;;54.60;23.90;;;7.80;38.90;;;;;;5082026;28;20460;-63
2022/05/02 04:48:01;;;;;;;56.43;24.50;;;7.90;39.70;;;;;;5073744;28;20453;-64
2022/05/02 04:50:27;;;;;;;58.27;25.00;;;8.00;39.10;;;;;;5069228;28;21022;-64
2022/05/02 04:52:54;;;;;;;60.87;25.60;;;8.00;39.10;;;;;;5074599;28;20509;-63
2022/05/02 04:55:21;;;;;;;58.97;25.10;;;8.10;39.10;;;;;;5072717;28;20461;-63
2022/05/02 04:57:48;;;;;;;55.17;24.77;;;8.20;38.90;;;;;;5086363;28;20464;-62
2022/05/02 05:00:17;;;;;;;57.27;25.80;;;8.30;38.60;;;;;;5083510;28;20829;-65
2022/05/02 05:02:44;;;;;;;54.13;23.03;;;8.40;38.40;;;;;;5083022;28;20475;-66
2022/05/02 05:05:11;;;;;;;61.03;26.93;;;8.50;38.40;;;;;;5082051;28;20467;-64
2022/05/02 05:07:38;;;;;;;54.03;25.00;;;8.80;38.20;;;;;;5081959;28;20552;-63
2022/05/02 05:10:09;;;;;;;56.77;24.17;;;9.60;37.30;;;;;;5085126;28;20508;-65
2022/05/02 05:12:50;;;;;;;53.20;21.60;;;10.50;35.00;;;;;;5080945;28;20468;-63
2022/05/02 05:18:32;;;;;;;48.07;20.90;;;12.90;28.90;;;;;;5084282;28;20825;-64
2022/05/02 05:21:04;;;;;;;50.10;22.40;;;14.20;24.70;;;;;;5079307;28;20468;-62
2022/05/02 05:23:45;;;;;;;45.80;19.37;;;15.30;21.30;;;;;;5079455;28;20486;-65
2022/05/02 05:26:16;;;;;;;49.47;20.67;;;16.20;19.00;;;;;;5080377;28;21231;-63
2022/05/02 05:29:03;;;;;;;43.57;18.43;;;17.20;17.20;;;;;;5082594;28;20484;-62
2022/05/02 05:31:44;;;;;;;46.43;19.80;;;18.30;15.30;;;;;;5082197;28;20483;-69
2022/05/02 05:34:26;;;;;;;43.87;18.80;;;19.40;13.10;;;;;;5085197;28;20460;-65
2022/05/02 05:37:23;;;;;;;43.73;18.97;;;20.60;11.20;;;;;;5078055;28;20478;-65
2022/05/02 05:40:01;;;;;;;39.73;17.20;;;21.60;9.60;;;;;;5046851;28;20483;-63
2022/05/02 05:42:38;;;;;;;42.93;17.27;;;22.70;7.80;;;;;;5079834;28;20465;-63
2022/05/02 05:45:08;;;;;;;38.77;16.63;;;23.30;6.30;;;;;;5083352;28;20463;-63
2022/05/02 05:47:57;;;;;;;40.03;16.00;;;23.80;5.10;;;;;;5078628;28;20464;-63
2022/05/02 05:50:26;;;;;;;40.07;17.17;;;24.30;5.20;;;;;;5083032;28;20495;-64
2022/05/02 05:53:08;;;;;;;38.37;17.90;;;24.80;3.30;;;;;;5076189;28;20491;-63
2022/05/02 05:55:50;;;;;;;38.80;18.67;;;25.20;2.90;;;;;;5082159;28;20484;-63
2022/05/02 05:58:28;;;;;;;38.00;17.40;;;25.80;1.80;;;;;;5077384;28;21042;-61
2022/05/02 06:01:04;;;;;;;38.13;18.53;;;26.40;1.30;;;;;;5073258;28;20460;-64
2022/05/02 06:03:38;;;;;;;37.17;17.77;;;27.40;1.00;;;;;;5077539;28;21145;-64
2022/05/02 06:06:04;;;;;;;37.70;18.23;;;27.90;1.00;;;;;;5081445;28;20467;-63
2022/05/02 06:08:34;;;;;;;37.07;18.23;;;28.40;1.00;;;;;;5079445;28;20491;-61
2022/05/02 06:11:02;;;;;;;40.20;18.80;;;28.80;1.00;;;;;;5080433;28;20491;-63
2022/05/02 06:13:33;;;;;;;36.40;18.03;;;29.00;1.00;;;;;;5079031;28;21227;-63
2022/05/02 06:18:48;;;;;;;37.97;18.67;;;30.00;1.00;;;;;;5077819;28;20530;-63
2022/05/02 06:21:21;;;;;;;36.87;19.10;;;31.00;1.00;;;;;;5072502;28;20459;-62
2022/05/02 06:23:50;;;;;;;36.37;18.87;;;31.80;1.00;;;;;;5072264;28;20453;-63
2022/05/02 06:26:18;;;;;;;36.67;17.00;;;32.50;1.00;;;;;;5077347;28;20498;-65
2022/05/02 06:28:46;;;;;;;34.73;18.03;;;32.90;1.00;;;;;;5078024;28;20492;-64
2022/05/02 06:31:18;;;;;;;36.77;17.67;;;33.10;1.00;;;;;;5076246;28;20478;-65
2022/05/02 06:33:50;;;;;;;35.10;16.90;;;33.40;1.00;;;;;;5074475;28;20484;-65
2022/05/02 06:36:33;;;;;;;35.97;16.90;;;33.80;1.00;;;;;;5078023;28;20473;-65
2022/05/02 06:39:03;;;;;;;34.93;18.20;;;34.20;1.00;;;;;;5079725;28;20491;-65
2022/05/02 06:41:44;;;;;;;34.50;16.57;;;35.00;1.00;;;;;;5076358;28;20460;-65
2022/05/02 06:44:18;;;;;;;34.80;17.50;;;35.40;1.00;;;;;;5082075;28;20593;-65
2022/05/02 06:46:54;;;;;;;33.90;16.90;;;36.00;1.00;;;;;;5078217;28;20460;-65
2022/05/02 06:49:25;;;;;;;35.17;18.50;;;36.60;1.00;;;;;;5074606;28;20476;-65
2022/05/02 06:51:57;;;;;;;33.57;16.57;;;37.40;1.00;;;;;;5076994;28;20481;-66
2022/05/02 06:54:43;;;;;;;35.50;18.13;;;38.10;1.00;;;;;;5077778;28;20460;-65
2022/05/02 06:57:18;;;;;;;33.53;19.03;;;38.50;1.00;;;;;;5077589;28;20463;-65
2022/05/02 06:59:52;;;;;;;34.27;19.43;;;38.60;1.00;;;;;;5082207;28;20827;-65
2022/05/02 07:02:52;;;;;;;35.77;20.90;;;38.60;1.00;;;;;;5076971;28;20469;-62
2022/05/02 07:05:26;;;;;;;37.10;19.27;;;38.60;1.00;;;;;;5085892;28;20464;-63
2022/05/02 07:07:59;;;;;;;35.03;20.47;;;38.80;1.00;;;;;;5084226;28;21009;-63
2022/05/02 07:10:31;;;;;;;37.63;21.03;;;39.20;1.00;;;;;;5078615;28;20484;-66
2022/05/02 07:13:06;;;;;;;32.90;19.40;;;39.50;1.00;;;;;;5074399;28;20561;-64
2022/05/02 07:15:44;;;;;;;35.90;20.07;;;40.30;1.00;;;;;;5079001;28;20464;-60
2022/05/02 07:18:27;;;;;;;36.60;20.47;;;40.80;1.00;;;;;;5074110;28;20992;-61
2022/05/02 07:21:10;;;;;;;33.67;19.00;;;41.70;1.00;;;;;;5081738;28;20468;-65
2022/05/02 07:23:58;;;;;;;32.43;17.70;;;42.60;1.00;;;;;;5074985;28;20488;-64
2022/05/02 07:26:28;;;;;;;33.00;17.97;;;43.30;1.00;;;;;;5080309;28;20464;-64
2022/05/02 07:29:00;;;;;;;34.33;19.00;;;43.90;1.00;;;;;;5080725;28;20533;-64
2022/05/02 07:31:29;;;;;;;32.27;18.20;;;44.40;1.00;;;;;;5082129;28;20476;-65
2022/05/02 07:33:56;;;;;;;33.13;18.73;;;44.90;1.00;;;;;;5075571;28;20468;-64
2022/05/02 07:36:26;;;;;;;31.27;18.07;;;45.20;1.00;;;;;;5084073;28;20468;-63
2022/05/02 07:38:54;;;;;;;31.60;18.73;;;45.50;1.00;;;;;;5082580;28;20786;-64
2022/05/02 07:41:25;;;;;;;31.13;18.83;;;46.10;1.00;;;;;;5079610;28;20460;-62
2022/05/02 07:43:58;;;;;;;32.50;20.13;;;46.50;1.00;;;;;;5074909;28;20522;-63
2022/05/02 07:46:27;;;;;;;33.50;20.67;;;46.80;1.00;;;;;;5077327;28;20465;-64
2022/05/02 07:48:57;;;;;;;34.43;21.30;;;46.90;1.00;;;;;;5078808;28;20487;-66
2022/05/02 07:51:26;;;;;;;32.83;19.57;;;47.10;1.00;;;;;;5077244;28;20533;-65
2022/05/02 07:53:54;;;;;;;32.03;18.50;;;46.50;1.00;;;;;;5084002;28;20468;-64
2022/05/02 07:56:25;;;;;;;30.90;19.30;;;46.50;1.00;;;;;;5074369;28;20529;-63
2022/05/02 07:58:53;;;;;;;31.67;18.90;;;46.70;1.00;;;;;;5076804;28;20480;-63
2022/05/02 08:01:20;;;;;;;30.20;17.60;;;47.00;1.00;;;;;;5076082;28;20475;-64
2022/05/02 08:03:47;;;;;;;30.53;17.90;;;47.10;1.00;;;;;;5080599;28;20487;-63
2022/05/02 08:06:32;;;;;;;33.43;20.03;;;47.10;1.00;;;;;;5079332;28;20460;-63
2022/05/02 08:09:06;;;;;;;36.83;21.17;;;46.80;1.00;;;;;;5077353;28;20495;-63
2022/05/02 08:11:42;;;;;;;32.00;18.10;;;47.10;1.00;;;;;;5076589;28;20472;-60
2022/05/02 08:14:16;;;;;;;33.10;18.70;;;47.40;1.00;;;;;;5082141;28;20460;-59
2022/05/02 08:16:59;;;;;;;30.67;18.63;;;47.70;1.00;;;;;;5074580;28;20457;-61
2022/05/02 08:19:45;;;;;;;29.73;17.40;;;48.00;1.00;;;;;;5075654;28;20529;-59
2022/05/02 08:28:03;;;;;;;29.53;16.50;;;46.80;1.00;;;;;;5078693;28;20969;-62
2022/05/02 08:30:37;;;;;;;32.10;16.90;;;46.60;1.00;;;;;;5076754;28;20487;-63
2022/05/02 08:33:05;;;;;;;30.53;16.33;;;45.30;1.00;;;;;;5081671;28;20733;-62
2022/05/02 08:35:51;;;;;;;31.27;17.77;;;45.20;1.00;;;;;;5085722;28;20469;-60
2022/05/02 08:38:33;;;;;;;29.90;15.90;;;44.70;1.00;;;;;;5083437;28;20834;-62
2022/05/02 08:41:38;;;;;;;31.47;17.50;;;44.70;1.00;;;;;;5079018;28;21229;-61
2022/05/02 08:44:46;;;;;;;29.07;15.20;;;45.70;1.00;;;;;;5085556;28;20467;-59
2022/05/02 08:47:50;;;;;;;27.57;12.90;;;46.30;1.00;;;;;;5078832;28;20958;-59
2022/05/02 08:50:29;;;;;;;29.73;16.23;;;46.50;1.00;;;;;;5072439;28;20481;-60
2022/05/02 08:53:25;;;;;;;30.30;15.80;;;46.10;1.00;;;;;;5080470;28;20487;-60
2022/05/02 08:56:22;;;;;;;27.20;13.47;;;46.40;1.00;;;;;;5086223;28;20457;-62
2022/05/02 08:59:29;;;;;;;27.53;11.77;;;47.30;1.00;;;;;;5084043;28;20488;-63
2022/05/02 09:02:31;;;;;;;27.97;15.03;;;47.20;1.00;;;;;;5079618;28;20465;-62
2022/05/02 09:05:34;;;;;;;27.70;14.60;;;47.50;1.00;;;;;;5080986;28;20853;-62
2022/05/02 09:08:36;;;;;;;30.17;15.37;;;45.20;1.00;;;;;;5084314;28;20464;-62
2022/05/02 09:11:31;;;;;;;29.77;15.10;;;43.20;1.00;;;;;;5086526;28;20487;-62
2022/05/02 09:14:37;;;;;;;29.57;14.67;;;42.50;1.00;;;;;;5077292;28;20464;-61
2022/05/02 09:17:41;;;;;;;29.90;13.87;;;39.70;1.00;;;;;;5078987;28;20452;-62
2022/05/02 09:20:27;;;;;;;32.60;16.80;;;37.30;1.00;;;;;;5088750;28;20490;-62
2022/05/02 09:23:44;;;;;;;33.10;15.87;;;36.20;1.00;;;;;;5087641;28;20950;-61
2022/05/02 09:26:46;;;;;;;33.27;15.63;;;36.50;1.00;;;;;;5083519;28;20459;-61
2022/05/02 09:29:49;;;;;;;35.03;17.27;;;37.60;1.00;;;;;;5057151;28;20482;-60
2022/05/02 09:32:18;;;;;;;35.20;15.97;;;36.40;1.00;;;;;;5081134;28;20475;-60
2022/05/02 09:34:52;;;;;;;34.63;16.10;;;33.80;1.00;;;;;;5082001;28;20471;-61
2022/05/02 09:37:23;;;;;;;35.30;16.97;;;32.60;1.00;;;;;;5089500;28;20456;-61
2022/05/02 09:40:00;;;;;;;35.87;17.90;;;32.90;1.00;;;;;;5081424;28;20841;-61
2022/05/02 09:42:44;;;;;;;35.77;18.30;;;33.10;1.00;;;;;;5076789;28;20457;-62
2022/05/02 09:51:35;;;;;;;32.43;13.77;;;38.70;1.00;;;;;;5079880;28;20483;-61
2022/05/02 09:54:05;;;;;;;33.30;14.70;;;40.80;1.00;;;;;;5081639;28;20958;-62
2022/05/02 09:56:40;;;;;;;28.77;12.40;;;40.20;1.00;;;;;;5083768;28;20889;-62
2022/05/02 09:59:09;;;;;;;32.23;14.43;;;39.80;1.00;;;;;;5085410;28;20940;-61
2022/05/02 10:01:43;;;;;;;32.50;14.47;;;37.60;1.00;;;;;;5081371;28;20471;-61
2022/05/02 10:04:30;;;;;;;31.17;12.03;;;36.70;1.00;;;;;;5082265;28;20460;-61
2022/05/02 10:07:04;;;;;;;30.60;11.07;;;39.00;1.00;;;;;;5075015;28;21036;-61
2022/05/02 10:09:53;;;;;;;28.83;11.37;;;40.50;1.00;;;;;;5083741;28;20476;-60
2022/05/02 10:12:28;;;;;;;28.07;9.40;;;41.60;1.00;;;;;;5064836;28;20479;-61
2022/05/02 10:15:06;;;;;;;27.40;9.30;;;41.90;1.00;;;;;;5083060;28;20459;-61
2022/05/02 10:18:08;;;;;;;28.23;11.37;;;40.30;1.00;;;;;;5080487;28;20465;-60
2022/05/02 10:20:49;;;;;;;28.10;9.40;;;37.30;1.00;;;;;;5034635;28;20451;-60
2022/05/02 10:23:34;;;;;;;31.13;9.77;;;35.00;1.00;;;;;;5082062;28;20456;-61
2022/05/02 10:26:07;;;;;;;28.27;10.00;;;33.90;1.00;;;;;;5085519;28;20500;-59
2022/05/02 10:28:53;;;;;;;31.63;10.57;;;32.20;1.00;;;;;;5075682;28;20476;-61
2022/05/02 10:31:21;;;;;;;31.00;10.07;;;31.00;1.00;;;;;;5074334;28;20484;-59
2022/05/02 10:33:51;;;;;;;30.70;9.07;;;30.20;1.00;;;;;;5077061;28;20519;-61
2022/05/02 10:36:23;;;;;;;29.80;9.37;;;29.60;1.00;;;;;;5079097;28;20481;-64
2022/05/02 10:38:53;;;;;;;34.50;9.00;;;29.10;1.00;;;;;;5077154;28;20484;-60
2022/05/02 10:41:29;;;;;;;29.30;8.60;;;28.70;1.00;;;;;;5074241;28;20474;-61
2022/05/02 10:44:01;;;;;;;31.97;10.63;;;28.30;1.00;;;;;;5076631;28;20556;-60
2022/05/02 10:46:31;;;;;;;31.70;9.77;;;27.90;1.00;;;;;;5084518;28;20465;-60
2022/05/02 10:49:04;;;;;;;30.50;9.13;;;27.40;1.00;;;;;;5074714;28;20484;-60
2022/05/02 10:51:47;;;;;;;35.10;12.83;;;26.70;1.00;;;;;;5080216;28;21006;-61
2022/05/02 10:54:30;;;;;;;33.93;11.87;;;26.30;1.00;;;;;;5078687;28;20456;-62
2022/05/02 10:57:03;;;;;;;32.57;9.83;;;26.10;1.00;;;;;;5072768;28;20461;-64
2022/05/02 10:59:37;;;;;;;31.40;10.10;;;26.10;1.20;;;;;;5080595;28;20853;-62
2022/05/02 11:02:33;;;;;;;32.10;11.87;;;26.00;1.50;;;;;;5074987;28;20473;-65
2022/05/02 11:05:11;;;;;;;36.83;10.20;;;26.00;2.10;;;;;;5075530;28;20457;-61
2022/05/02 11:07:58;;;;;;;34.30;10.23;;;25.90;1.80;;;;;;5072190;28;20460;-62
2022/05/02 11:10:30;;;;;;;31.17;10.10;;;25.80;2.20;;;;;;5078989;28;20555;-61
2022/05/02 11:13:11;;;;;;;30.23;8.60;;;25.90;1.80;;;;;;5083109;28;20480;-62
2022/05/02 11:15:49;;;;;;;31.77;9.80;;;25.60;1.60;;;;;;5079218;28;20474;-62
2022/05/02 11:21:41;;;;;;;30.63;9.27;;;25.00;2.60;;;;;;5070769;28;20452;-63
2022/05/02 11:24:29;;;;;;;32.47;13.37;;;24.50;2.90;;;;;;5070020;28;20565;-63
2022/05/02 11:27:05;;;;;;;32.77;10.47;;;24.30;3.10;;;;;;5076795;28;21006;-61
2022/05/02 11:29:45;;;;;;;32.00;10.20;;;24.30;3.30;;;;;;5077611;28;20472;-61
2022/05/02 11:32:26;;;;;;;31.83;10.03;;;24.30;2.90;;;;;;5069951;28;20555;-61
2022/05/02 11:35:04;;;;;;;32.63;11.50;;;24.00;3.00;;;;;;5068253;28;20502;-62
2022/05/02 11:37:37;;;;;;;34.80;11.20;;;23.90;3.90;;;;;;5069373;28;20453;-61
2022/05/02 11:40:10;;;;;;;32.93;11.30;;;24.20;4.60;;;;;;5083846;28;20480;-62
2022/05/02 11:42:43;;;;;;;34.10;11.27;;;24.40;4.00;;;;;;5083146;28;20460;-62
2022/05/02 11:45:11;;;;;;;32.10;11.60;;;24.10;4.20;;;;;;5072269;28;20463;-62
2022/05/02 11:48:04;;;;;;;32.60;11.10;;;23.80;4.60;;;;;;5073704;28;20887;-61
2022/05/02 11:50:41;;;;;;;30.40;8.57;;;23.80;4.80;;;;;;5072206;28;20555;-61
2022/05/02 11:53:10;;;;;;;30.13;8.57;;;23.80;4.80;;;;;;5079292;28;20485;-62
2022/05/02 11:55:40;;;;;;;32.20;10.67;;;23.60;4.00;;;;;;5076211;28;22432;-62
2022/05/02 11:58:10;;;;;;;33.23;11.77;;;23.50;4.70;;;;;;5080112;28;20458;-63
2022/05/02 12:00:37;;;;;;;35.33;13.60;;;23.30;4.60;;;;;;5071263;28;20765;-60
2022/05/02 12:03:12;;;;;;;33.30;11.60;;;22.90;5.10;;;;;;5070163;28;20508;-62
2022/05/02 12:05:41;;;;;;;33.47;11.60;;;22.80;5.90;;;;;;5075301;28;20487;-62
2022/05/02 12:08:10;;;;;;;33.47;11.43;;;22.80;6.30;;;;;;5073127;28;20460;-60
2022/05/02 12:10:40;;;;;;;31.70;10.00;;;22.70;5.70;;;;;;5073041;28;20460;-61
2022/05/02 12:13:10;;;;;;;31.20;9.70;;;22.60;5.70;;;;;;5074501;28;20562;-61
2022/05/02 12:15:58;;;;;;;32.10;11.17;;;22.80;6.20;;;;;;5072455;28;20452;-61
2022/05/02 12:18:39;;;;;;;32.40;10.77;;;22.80;6.60;;;;;;5072710;28;20457;-63
2022/05/02 12:21:08;;;;;;;32.27;9.97;;;22.90;6.10;;;;;;5077860;28;20465;-61
2022/05/02 12:23:37;;;;;;;31.70;10.17;;;22.90;5.90;;;;;;5074689;28;20515;-61
2022/05/02 12:26:15;;;;;;;31.37;9.60;;;22.80;5.90;;;;;;5071452;28;20463;-61
2022/05/02 12:28:44;;;;;;;31.67;9.70;;;22.80;5.50;;;;;;5077222;28;20484;-60
2022/05/02 12:31:17;;;;;;;30.27;8.83;;;22.80;5.80;;;;;;5078151;28;20475;-61
2022/05/02 12:33:50;;;;;;;30.60;9.10;;;22.70;6.10;;;;;;5074632;28;21389;-61
2022/05/02 12:36:19;;;;;;;33.23;9.83;;;22.70;6.30;;;;;;5078541;28;20554;-61
2022/05/02 12:38:55;;;;;;;31.30;10.03;;;22.80;5.70;;;;;;5077724;28;20480;-61
2022/05/02 12:41:27;;;;;;;31.87;9.90;;;22.90;5.70;;;;;;5073390;28;20490;-61
2022/05/02 12:44:00;;;;;;;34.00;11.30;;;22.90;6.20;;;;;;5078622;28;20492;-62
2022/05/02 12:46:34;;;;;;;32.70;11.23;;;22.70;5.80;;;;;;5076813;28;20558;-60
2022/05/02 12:49:04;;;;;;;33.37;11.10;;;22.50;6.80;;;;;;5072619;28;20484;-61
2022/05/02 12:51:32;;;;;;;32.17;10.90;;;22.40;6.60;;;;;;5072936;28;20465;-60
2022/05/02 12:54:13;;;;;;;32.53;11.00;;;22.30;6.70;;;;;;5072220;28;20503;-60
2022/05/02 13:02:36;;;;;;;35.50;13.37;;;21.90;8.70;;;;;;5077477;28;20479;-61
2022/05/02 13:05:09;;;;;;;34.77;12.50;;;21.80;8.70;;;;;;5077772;28;20465;-61
2022/05/02 13:07:44;;;;;;;35.90;13.63;;;21.80;8.60;;;;;;5073569;28;21133;-61
2022/05/02 13:10:21;;;;;;;34.70;12.40;;;21.80;8.80;;;;;;5080188;28;21034;-61
2022/05/02 13:13:03;;;;;;;37.60;14.83;;;21.90;8.80;;;;;;5075846;28;20484;-62
2022/05/02 13:15:31;;;;;;;34.10;12.23;;;21.80;8.60;;;;;;5077301;28;20545;-60
2022/05/02 13:18:01;;;;;;;34.07;12.13;;;21.70;9.10;;;;;;5073340;28;20453;-62
2022/05/02 13:20:29;;;;;;;36.40;12.70;;;21.60;9.20;;;;;;5080768;28;20480;-61
2022/05/02 13:23:07;;;;;;;35.53;12.43;;;21.40;8.90;;;;;;5082544;28;20966;-60
2022/05/02 13:26:09;;;;;;;34.83;12.73;;;21.30;9.40;;;;;;5082838;28;20878;-61
2022/05/02 13:28:55;;;;;;;33.27;11.97;;;21.30;10.10;;;;;;5073034;28;20477;-62
2022/05/02 13:31:27;;;;;;;33.63;11.17;;;21.30;10.00;;;;;;5077854;28;20476;-61
2022/05/02 13:33:57;;;;;;;31.90;10.50;;;21.30;9.70;;;;;;5084009;28;20484;-61
2022/05/02 13:36:26;;;;;;;33.50;11.77;;;21.40;9.90;;;;;;5082867;28;20476;-61
2022/05/02 13:39:09;;;;;;;32.90;11.07;;;21.60;9.40;;;;;;5083649;28;20494;-60
2022/05/02 13:41:43;;;;;;;34.70;10.10;;;21.60;8.90;;;;;;5077574;28;20465;-61
2022/05/02 13:44:21;;;;;;;35.30;10.60;;;21.50;8.70;;;;;;5080883;28;20460;-61
2022/05/02 13:46:59;;;;;;;33.20;10.60;;;21.70;8.80;;;;;;5082906;28;20557;-61